Time;durP1;ratioP1;P1;durP2;ratioP2;P2;SDS_P1;SDS_P2;PMS_P1;PMS_P2;Temp;Humidity;BMP_temperature;BMP_pressure;BME280_temperature;BME280_humidity;BME280_pressure;Samples;Min_cycle;Max_cycle;Signal;HPM_P1;HPM_P2
2023/02/14 00:01:48;;;;;;;14.52;7.22;;;;;;;6.94;100.00;102733.28;5001632;28;20037;-76
2023/02/14 00:04:14;;;;;;;16.40;8.40;;;;;;;7.00;100.00;102737.09;5001304;28;20137;-77
2023/02/14 00:06:40;;;;;;;12.38;6.95;;;;;;;7.00;100.00;102721.34;5001914;28;20036;-76
2023/02/14 00:09:17;;;;;;;14.60;8.23;;;;;;;6.93;100.00;102736.75;5004910;28;20030;-77
2023/02/14 00:11:43;;;;;;;15.57;10.25;;;;;;;6.84;100.00;102737.25;4999715;28;20042;-76
2023/02/14 00:16:53;;;;;;;19.13;12.48;;;;;;;6.52;100.00;102727.91;5000221;28;20050;-76
2023/02/14 00:19:20;;;;;;;14.88;10.85;;;;;;;6.53;100.00;102720.13;5006580;28;20117;-76
2023/02/14 00:21:46;;;;;;;16.35;9.63;;;;;;;6.59;100.00;102730.00;5003476;28;20512;-76
2023/02/14 00:24:14;;;;;;;17.40;10.77;;;;;;;6.58;100.00;102728.22;5003319;28;20133;-76
2023/02/14 00:26:40;;;;;;;15.35;9.40;;;;;;;6.53;100.00;102728.00;5007927;28;20037;-76
2023/02/14 00:29:10;;;;;;;15.80;9.20;;;;;;;6.60;100.00;102726.53;5000582;28;20034;-76
2023/02/14 00:31:36;;;;;;;14.18;8.73;;;;;;;6.55;100.00;102717.59;5002357;28;20523;-76
2023/02/14 00:34:02;;;;;;;15.52;9.07;;;;;;;6.64;100.00;102722.34;4998892;28;20117;-76
2023/02/14 00:36:27;;;;;;;16.35;9.52;;;;;;;6.69;100.00;102724.34;5000251;28;20045;-75
2023/02/14 00:38:53;;;;;;;15.68;10.15;;;;;;;6.73;100.00;102725.34;5000636;28;20034;-76
2023/02/14 00:41:18;;;;;;;15.60;9.10;;;;;;;6.68;100.00;102719.00;5002875;28;20029;-76
2023/02/14 00:43:48;;;;;;;17.67;11.68;;;;;;;6.73;100.00;102717.50;5000002;28;20038;-75
2023/02/14 00:46:15;;;;;;;14.15;8.10;;;;;;;6.75;100.00;102716.72;4998644;28;20038;-76
2023/02/14 00:48:41;;;;;;;13.02;8.38;;;;;;;6.79;100.00;102723.03;5000790;28;20034;-75
2023/02/14 00:51:07;;;;;;;13.00;8.57;;;;;;;6.79;100.00;102723.91;5000241;28;20529;-76
2023/02/14 00:53:33;;;;;;;14.77;9.13;;;;;;;6.75;100.00;102715.84;5000507;28;20076;-76
2023/02/14 00:55:58;;;;;;;15.98;9.95;;;;;;;6.69;100.00;102724.34;5001253;28;20520;-76
2023/02/14 00:58:23;;;;;;;16.38;9.93;;;;;;;6.67;100.00;102719.84;5000110;28;20046;-76
2023/02/14 01:00:48;;;;;;;13.40;8.13;;;;;;;6.59;100.00;102714.25;5004379;28;20030;-76
2023/02/14 01:03:14;;;;;;;16.02;8.93;;;;;;;6.66;100.00;102715.44;5005699;28;20265;-76
2023/02/14 01:05:40;;;;;;;14.10;8.60;;;;;;;6.65;100.00;102721.50;5008368;28;20934;-76
2023/02/14 01:08:05;;;;;;;13.52;8.77;;;;;;;6.57;100.00;102718.53;5004423;28;20038;-76
2023/02/14 01:10:30;;;;;;;16.77;10.50;;;;;;;6.53;100.00;102722.75;5002657;28;20053;-76
2023/02/14 01:12:57;;;;;;;10.82;6.65;;;;;;;6.56;100.00;102715.00;5003325;28;20088;-76
2023/02/14 01:15:22;;;;;;;14.88;8.57;;;;;;;6.54;100.00;102711.41;5001560;28;20050;-76
2023/02/14 01:17:48;;;;;;;14.40;8.05;;;;;;;6.49;100.00;102720.81;5000186;28;20038;-76
2023/02/14 01:20:13;;;;;;;14.10;9.52;;;;;;;6.40;100.00;102717.78;5006048;28;20038;-76
2023/02/14 01:22:39;;;;;;;14.60;9.32;;;;;;;6.49;100.00;102702.44;5006311;28;20046;-76
2023/02/14 01:25:05;;;;;;;16.73;10.75;;;;;;;6.58;100.00;102708.13;5005016;28;20034;-76
2023/02/14 01:27:30;;;;;;;17.08;10.05;;;;;;;6.55;100.00;102707.97;5001768;28;20046;-76
2023/02/14 01:29:55;;;;;;;18.02;9.80;;;;;;;6.47;100.00;102708.44;5005712;28;20041;-76
2023/02/14 01:32:21;;;;;;;19.00;10.07;;;;;;;6.42;100.00;102709.97;5001424;28;20057;-76
2023/02/14 01:34:46;;;;;;;14.00;8.63;;;;;;;6.47;100.00;102709.38;5004473;28;20042;-76
2023/02/14 01:37:12;;;;;;;16.35;8.93;;;;;;;6.47;100.00;102697.94;5003216;28;20026;-76
2023/02/14 01:39:38;;;;;;;16.65;9.40;;;;;;;6.34;100.00;102697.41;5007198;28;20049;-76
2023/02/14 01:42:03;;;;;;;14.45;7.50;;;;;;;6.33;100.00;102697.31;5002780;28;20103;-75
2023/02/14 01:44:32;;;;;;;15.52;8.23;;;;;;;6.44;100.00;102696.09;5003803;28;20036;-75
2023/02/14 01:47:01;;;;;;;17.40;8.38;;;;;;;6.50;100.00;102693.75;5008615;28;20040;-76
2023/02/14 01:49:31;;;;;;;11.63;6.85;;;;;;;6.47;100.00;102693.63;5003288;28;20042;-77
2023/02/14 01:52:00;;;;;;;15.80;8.60;;;;;;;6.56;100.00;102694.03;5003376;28;20038;-76
2023/02/14 01:54:28;;;;;;;12.73;7.43;;;;;;;6.52;100.00;102691.19;5005550;28;20038;-76
2023/02/14 01:56:59;;;;;;;13.25;6.75;;;;;;;6.55;100.00;102684.38;5011606;28;20042;-76
2023/02/14 01:59:27;;;;;;;10.98;6.13;;;;;;;6.52;100.00;102686.88;5002188;28;20587;-76
2023/02/14 02:01:53;;;;;;;13.27;7.10;;;;;;;6.42;100.00;102683.72;5003531;28;20038;-76
2023/02/14 02:04:25;;;;;;;13.02;7.90;;;;;;;6.35;100.00;102682.56;5002759;28;20036;-76
2023/02/14 02:06:58;;;;;;;13.18;7.55;;;;;;;6.37;100.00;102678.28;5019749;28;20034;-75
2023/02/14 02:09:34;;;;;;;12.70;7.50;;;;;;;6.40;100.00;102675.81;5006385;28;20030;-76
2023/02/14 02:12:01;;;;;;;13.00;6.88;;;;;;;6.41;100.00;102680.22;5008943;28;20398;-76
2023/02/14 02:14:28;;;;;;;15.70;7.32;;;;;;;6.41;100.00;102680.22;5003722;28;20026;-76
2023/02/14 02:16:56;;;;;;;14.70;7.15;;;;;;;6.39;100.00;102684.47;5000767;28;20114;-76
2023/02/14 02:20:14;;;;;;;15.13;8.02;;;;;;;6.35;100.00;102687.81;5011002;28;20503;-76
2023/02/14 02:22:51;;;;;;;13.40;7.35;;;;;;;6.37;100.00;102670.44;5017439;28;20045;-76
2023/02/14 02:25:50;;;;;;;13.68;7.95;;;;;;;6.41;100.00;102679.31;5002362;28;20512;-76
2023/02/14 02:28:44;;;;;;;16.50;9.18;;;;;;;6.33;100.00;102677.25;5010092;28;20041;-76
2023/02/14 02:31:33;;;;;;;;;;;;;;;6.27;100.00;102684.84;5018606;28;20129;-76
2023/02/14 02:34:39;;;;;;;15.32;7.28;;;;;;;6.35;100.00;102675.59;5003814;28;20426;-76
2023/02/14 02:37:42;;;;;;;14.40;7.53;;;;;;;6.47;100.00;102680.50;5000986;28;20038;-77
2023/02/14 02:40:32;;;;;;;14.55;8.05;;;;;;;6.52;100.00;102676.38;5006085;28;20030;-76
2023/02/14 02:43:29;;;;;;;14.25;7.25;;;;;;;6.43;100.00;102686.44;5002225;28;20382;-76
2023/02/14 02:53:01;;;;;;;12.57;6.90;;;;;;;6.35;100.00;102679.94;5000239;28;20477;-76
2023/02/14 02:54:59;;;;;;;12.25;6.75;;;;;;;6.30;100.00;102673.59;4999602;28;20050;-76
2023/02/14 02:57:31;;;;;;;11.65;6.72;;;;;;;6.27;100.00;102676.06;5004200;28;20034;-76
2023/02/14 02:59:58;;;;;;;14.35;7.40;;;;;;;6.14;100.00;102683.38;5001137;28;20030;-76
2023/02/14 03:02:30;;;;;;;12.48;6.65;;;;;;;6.18;100.00;102675.63;5002276;28;20129;-76
2023/02/14 03:05:01;;;;;;;12.98;6.57;;;;;;;6.15;100.00;102685.16;5002455;28;20026;-76
2023/02/14 03:07:38;;;;;;;14.38;7.28;;;;;;;6.15;100.00;102679.03;5000121;28;20397;-76
2023/02/14 03:10:17;;;;;;;12.95;6.93;;;;;;;6.21;100.00;102683.66;5002810;28;20052;-76
2023/02/14 03:13:12;;;;;;;14.18;8.45;;;;;;;6.27;100.00;102679.59;4999337;28;20040;-76
2023/02/14 03:15:50;;;;;;;15.00;8.57;;;;;;;6.26;100.00;102679.50;4999538;28;20043;-76
2023/02/14 03:18:42;;;;;;;14.55;7.05;;;;;;;6.28;100.00;102677.88;5006819;28;20053;-77
2023/02/14 03:21:16;;;;;;;14.40;7.78;;;;;;;6.30;100.00;102681.47;5001458;28;20074;-76
2023/02/14 03:23:53;;;;;;;11.85;6.82;;;;;;;6.30;100.00;102679.72;5000223;28;20038;-76
2023/02/14 03:26:26;;;;;;;14.70;7.68;;;;;;;6.27;100.00;102671.72;5000208;28;20034;-76
2023/02/14 03:29:11;;;;;;;14.00;7.50;;;;;;;6.21;100.00;102668.84;5000589;28;20146;-76
2023/02/14 03:31:59;;;;;;;14.10;8.43;;;;;;;6.23;100.00;102668.88;4995441;28;20026;-76
2023/02/14 03:34:30;;;;;;;15.05;7.82;;;;;;;6.26;100.00;102666.41;5003005;28;20095;-77
2023/02/14 03:37:09;;;;;;;13.73;7.18;;;;;;;6.27;100.00;102666.47;4999434;28;20104;-75
2023/02/14 03:39:50;;;;;;;17.38;8.73;;;;;;;6.28;100.00;102667.38;4999880;28;20096;-76
2023/02/14 03:42:27;;;;;;;14.57;7.50;;;;;;;6.29;100.00;102672.69;5007072;28;20467;-76
2023/02/14 03:44:55;;;;;;;14.68;8.18;;;;;;;6.23;100.00;102671.50;5000403;28;20133;-76
2023/02/14 03:47:26;;;;;;;16.83;8.32;;;;;;;6.19;100.00;102680.06;5001772;28;20042;-76
2023/02/14 03:50:05;;;;;;;15.45;9.02;;;;;;;6.17;100.00;102686.97;5002937;28;20026;-75
2023/02/14 03:52:32;;;;;;;17.23;8.85;;;;;;;6.11;100.00;102691.09;5001212;28;20030;-76
2023/02/14 03:55:01;;;;;;;14.60;7.78;;;;;;;6.17;100.00;102686.97;5003395;28;20037;-75
2023/02/14 03:57:48;;;;;;;15.48;8.23;;;;;;;6.22;100.00;102685.47;5000599;28;20120;-76
2023/02/14 04:00:14;;;;;;;15.80;8.35;;;;;;;6.23;100.00;102682.88;5004258;28;20104;-75
2023/02/14 04:02:45;;;;;;;15.73;8.05;;;;;;;6.28;100.00;102686.63;5005666;28;20033;-76
2023/02/14 04:05:22;;;;;;;18.38;9.43;;;;;;;6.30;100.00;102689.31;5001091;28;20057;-76
2023/02/14 04:07:56;;;;;;;15.52;7.90;;;;;;;6.32;100.00;102677.19;5002435;28;20049;-75
2023/02/14 04:10:22;;;;;;;16.83;8.85;;;;;;;6.26;100.00;102683.06;5006734;28;20038;-75
2023/02/14 04:12:48;;;;;;;16.17;7.93;;;;;;;6.24;100.00;102674.22;5003473;28;20041;-75
2023/02/14 04:15:14;;;;;;;19.30;9.98;;;;;;;6.27;100.00;102673.47;5001699;28;20042;-76
2023/02/14 04:20:25;;;;;;;14.48;7.65;;;;;;;6.24;100.00;102673.31;5002127;28;20103;-76
2023/02/14 04:22:50;;;;;;;14.40;8.02;;;;;;;6.21;100.00;102670.53;5001455;28;20052;-76
2023/02/14 04:25:17;;;;;;;14.73;7.88;;;;;;;6.18;100.00;102673.03;5000125;28;20042;-76
2023/02/14 04:27:42;;;;;;;15.68;8.18;;;;;;;6.19;100.00;102680.97;5001936;28;20037;-75
2023/02/14 04:30:08;;;;;;;16.48;8.35;;;;;;;6.21;100.00;102667.91;5000977;28;20040;-76
2023/02/14 04:32:34;;;;;;;16.98;9.52;;;;;;;6.15;100.00;102669.41;5000827;28;20466;-76
2023/02/14 04:34:59;;;;;;;16.13;8.98;;;;;;;6.10;100.00;102670.97;4999276;28;20038;-76
2023/02/14 04:37:25;;;;;;;16.38;8.52;;;;;;;6.10;100.00;102665.72;5002509;28;20044;-76
2023/02/14 04:39:50;;;;;;;13.68;7.75;;;;;;;6.12;100.00;102668.41;5006626;28;20026;-75
2023/02/14 04:42:15;;;;;;;17.02;8.43;;;;;;;6.10;100.00;102659.56;5001800;28;20505;-76
2023/02/14 04:44:41;;;;;;;14.32;7.50;;;;;;;6.09;100.00;102653.41;5000928;28;20512;-76
2023/02/14 04:47:06;;;;;;;17.05;8.85;;;;;;;6.14;100.00;102656.25;5002547;28;20401;-75
2023/02/14 04:49:32;;;;;;;15.30;7.90;;;;;;;6.10;100.00;102650.00;5000826;28;20432;-76
2023/02/14 04:51:58;;;;;;;17.23;8.05;;;;;;;6.11;100.00;102650.88;5004447;28;20069;-75
2023/02/14 04:54:23;;;;;;;16.02;7.97;;;;;;;6.11;100.00;102649.16;5004879;28;20128;-76
2023/02/14 04:56:49;;;;;;;18.52;9.95;;;;;;;6.05;100.00;102637.47;5006198;28;20124;-76
2023/02/14 04:59:14;;;;;;;17.25;9.13;;;;;;;6.00;100.00;102647.78;5003376;28;20037;-76
2023/02/14 05:01:40;;;;;;;13.52;7.15;;;;;;;6.04;100.00;102643.56;5012819;28;20037;-77
2023/02/14 05:04:06;;;;;;;18.08;9.15;;;;;;;6.07;100.00;102641.97;5010526;28;20408;-76
2023/02/14 05:06:31;;;;;;;15.75;8.27;;;;;;;6.06;100.00;102645.41;5007680;28;20087;-76
2023/02/14 05:08:57;;;;;;;16.02;9.07;;;;;;;6.06;100.00;102637.56;5003653;28;20453;-76
2023/02/14 05:11:22;;;;;;;18.60;9.98;;;;;;;6.05;100.00;102640.09;5007879;28;20084;-76
2023/02/14 05:13:48;;;;;;;17.92;9.15;;;;;;;6.06;100.00;102637.56;5010389;28;20508;-76
2023/02/14 05:16:13;;;;;;;17.45;8.73;;;;;;;6.20;100.00;102640.81;5008247;28;20520;-76
2023/02/14 05:18:39;;;;;;;18.08;9.43;;;;;;;6.27;100.00;102637.63;5003631;28;20050;-76
2023/02/14 05:21:04;;;;;;;17.13;9.00;;;;;;;6.37;100.00;102641.56;5011428;28;20061;-77
2023/02/14 05:23:30;;;;;;;16.02;8.30;;;;;;;6.42;100.00;102628.66;5004560;28;20503;-75
2023/02/14 05:25:55;;;;;;;16.05;7.80;;;;;;;6.40;100.00;102625.97;5002610;28;20497;-76
2023/02/14 05:28:20;;;;;;;14.48;7.75;;;;;;;6.32;100.00;102636.13;5006108;28;20557;-76
2023/02/14 05:30:46;;;;;;;16.40;7.70;;;;;;;6.25;100.00;102633.16;5005929;28;20044;-75
2023/02/14 05:33:11;;;;;;;15.88;8.65;;;;;;;6.13;100.00;102637.03;5002663;28;20386;-76
2023/02/14 05:35:37;;;;;;;15.85;8.95;;;;;;;6.10;100.00;102636.88;5004831;28;20096;-76
2023/02/14 05:38:02;;;;;;;14.75;6.97;;;;;;;6.08;100.00;102637.63;5004962;28;20049;-76
2023/02/14 05:40:27;;;;;;;20.75;9.55;;;;;;;6.08;100.00;102632.41;5005560;28;20038;-76
2023/02/14 05:42:54;;;;;;;18.20;8.95;;;;;;;6.02;100.00;102635.59;5007449;28;20052;-76
2023/02/14 05:45:20;;;;;;;16.10;8.45;;;;;;;5.99;100.00;102639.81;5009242;28;20393;-76
2023/02/14 05:47:47;;;;;;;13.88;7.93;;;;;;;6.03;100.00;102641.78;5007857;28;20038;-76
2023/02/14 05:50:12;;;;;;;15.88;8.75;;;;;;;6.05;100.00;102637.47;5002160;28;20038;-76
2023/02/14 05:52:38;;;;;;;15.73;8.13;;;;;;;6.04;100.00;102633.97;5005691;28;20045;-76
2023/02/14 05:55:03;;;;;;;22.25;9.25;;;;;;;6.05;100.00;102640.09;5007453;28;20042;-75
2023/02/14 05:57:29;;;;;;;20.67;10.05;;;;;;;6.06;100.00;102641.91;5012111;28;20117;-77
2023/02/14 05:59:54;;;;;;;18.75;9.57;;;;;;;6.09;100.00;102637.69;5011262;28;20073;-76
2023/02/14 06:02:19;;;;;;;22.45;11.55;;;;;;;6.08;100.00;102632.41;5011842;28;20141;-76
2023/02/14 06:04:45;;;;;;;18.75;9.90;;;;;;;6.07;100.00;102634.09;5005917;28;20034;-76
2023/02/14 06:07:10;;;;;;;20.60;10.77;;;;;;;6.05;100.00;102641.03;5001179;28;20034;-76
2023/02/14 06:09:35;;;;;;;20.67;9.50;;;;;;;6.06;100.00;102640.19;5005465;28;20038;-76
2023/02/14 06:12:01;;;;;;;18.35;10.43;;;;;;;6.00;100.00;102647.78;5001966;28;20049;-76
2023/02/14 06:14:26;;;;;;;37.00;23.52;;;;;;;5.97;100.00;102649.34;5004518;28;20046;-76
2023/02/14 06:16:51;;;;;;;30.95;19.65;;;;;;;6.00;100.00;102647.78;4999972;28;20042;-76
2023/02/14 06:19:17;;;;;;;28.83;17.63;;;;;;;5.97;100.00;102650.22;5003665;28;20040;-76
2023/02/14 06:21:42;;;;;;;20.45;14.73;;;;;;;5.94;100.00;102647.47;5005016;28;20062;-76
2023/02/14 06:24:08;;;;;;;24.15;15.48;;;;;;;5.96;100.00;102650.16;5001055;28;20066;-76
2023/02/14 06:26:34;;;;;;;23.35;15.18;;;;;;;5.86;100.00;102648.78;5002848;28;20038;-76
2023/02/14 06:29:01;;;;;;;26.05;16.17;;;;;;;5.86;100.00;102652.31;5009000;28;20548;-76
2023/02/14 06:31:27;;;;;;;30.40;16.70;;;;;;;5.88;100.00;102649.78;5006420;28;20033;-76
2023/02/14 06:33:52;;;;;;;27.75;17.60;;;;;;;5.98;100.00;102654.66;5004178;28;20451;-76
2023/02/14 06:36:18;;;;;;;25.35;17.10;;;;;;;6.01;100.00;102659.16;5002660;28;20121;-76
2023/02/14 06:38:44;;;;;;;25.42;15.68;;;;;;;5.97;100.00;102650.22;5001853;28;20088;-77
2023/02/14 06:41:10;;;;;;;24.13;16.92;;;;;;;5.96;100.00;102656.31;5008855;28;20053;-76
2023/02/14 06:43:36;;;;;;;28.42;16.33;;;;;;;5.92;100.00;102654.31;5006006;28;20038;-77
2023/02/14 06:46:02;;;;;;;25.63;18.80;;;;;;;5.91;100.00;102660.41;5000476;28;20439;-77
2023/02/14 06:48:28;;;;;;;27.67;17.75;;;;;;;5.90;100.00;102650.75;5005092;28;20037;-76
2023/02/14 06:50:53;;;;;;;24.90;18.83;;;;;;;5.97;100.00;102655.47;5003816;28;20034;-76
2023/02/14 06:53:20;;;;;;;26.70;19.20;;;;;;;6.03;100.00;102645.28;5003823;28;20046;-76
2023/02/14 06:55:45;;;;;;;29.40;19.23;;;;;;;6.04;100.00;102649.69;5008245;28;20315;-76
2023/02/14 06:58:11;;;;;;;20.90;15.25;;;;;;;6.07;100.00;102648.94;5000893;28;20042;-76
2023/02/14 07:00:36;;;;;;;23.35;15.95;;;;;;;6.11;100.00;102646.53;5008805;28;20381;-76
2023/02/14 07:03:01;;;;;;;24.13;15.65;;;;;;;6.13;100.00;102650.13;5006880;28;20040;-76
2023/02/14 07:05:27;;;;;;;26.38;16.02;;;;;;;6.14;100.00;102649.28;5005378;28;20045;-76
2023/02/14 07:07:52;;;;;;;30.77;19.30;;;;;;;6.20;100.00;102651.28;5001637;28;20046;-76
2023/02/14 07:10:17;;;;;;;28.33;20.88;;;;;;;6.19;100.00;102654.75;5005235;28;20088;-76
2023/02/14 07:12:43;;;;;;;28.73;19.63;;;;;;;6.25;100.00;102654.13;5003145;28;20048;-76
2023/02/14 07:15:11;;;;;;;29.27;19.13;;;;;;;6.34;100.00;102654.53;5003519;28;20038;-77
2023/02/14 07:17:36;;;;;;;30.23;20.65;;;;;;;6.43;100.00;102649.72;5002703;28;20136;-76
2023/02/14 07:20:03;;;;;;;41.33;25.45;;;;;;;6.46;100.00;102641.09;5000431;28;20117;-76
2023/02/14 07:22:28;;;;;;;29.95;21.05;;;;;;;6.52;100.00;102650.13;5002042;28;20065;-76
2023/02/14 07:24:53;;;;;;;30.65;19.35;;;;;;;6.55;100.00;102645.00;5001576;28;20150;-76
2023/02/14 07:27:19;;;;;;;27.08;19.00;;;;;;;6.58;100.00;102639.00;5002988;28;20034;-76
2023/02/14 07:29:44;;;;;;;25.17;19.38;;;;;;;6.54;100.00;102637.97;5003369;28;20041;-76
2023/02/14 07:32:09;;;;;;;20.90;10.43;;;;;;;6.55;100.00;102634.53;5000202;28;20041;-77
2023/02/14 07:34:35;;;;;;;15.70;7.22;;;;;;;6.65;100.00;102635.78;5002035;28;20034;-76
2023/02/14 07:37:00;;;;;;;12.80;7.15;;;;;;;6.80;100.00;102644.34;5006123;28;20046;-74
2023/02/14 07:39:26;;;;;;;12.75;7.07;;;;;;;6.89;100.00;102648.19;5008525;28;20092;-74
2023/02/14 07:41:51;;;;;;;16.05;7.28;;;;;;;6.95;100.00;102645.84;5009753;28;20045;-74
2023/02/14 07:44:18;;;;;;;14.35;6.78;;;;;;;7.02;100.00;102655.75;5002583;28;20038;-74
2023/02/14 07:46:43;;;;;;;11.23;5.88;;;;;;;7.08;100.00;102655.13;5002904;28;20042;-74
2023/02/14 07:49:09;;;;;;;12.85;5.80;;;;;;;6.99;100.00;102653.00;5001712;28;20033;-74
2023/02/14 07:51:34;;;;;;;13.95;6.75;;;;;;;7.00;100.00;102650.44;5001447;28;20523;-74
2023/02/14 07:53:59;;;;;;;11.77;6.07;;;;;;;7.03;100.00;102657.56;5003639;28;20168;-75
2023/02/14 07:56:25;;;;;;;12.05;6.03;;;;;;;7.17;100.00;102658.13;5002839;28;20064;-74
2023/02/14 07:58:50;;;;;;;12.00;6.70;;;;;;;7.29;100.00;102653.41;5001234;28;20038;-74
2023/02/14 08:01:16;;;;;;;11.52;6.30;;;;;;;7.36;100.00;102652.81;5001828;28;20104;-74
2023/02/14 08:03:48;;;;;;;11.95;5.75;;;;;;;7.39;96.45;102659.94;4999740;28;20034;-74
2023/02/14 08:06:17;;;;;;;12.93;6.00;;;;;;;7.44;95.93;102653.09;5002120;28;20041;-74
2023/02/14 08:08:43;;;;;;;12.45;6.10;;;;;;;7.51;95.35;102649.00;5010083;28;20041;-74
2023/02/14 08:11:08;;;;;;;17.67;8.73;;;;;;;7.48;95.35;102655.03;4999710;28;20397;-74
2023/02/14 08:13:34;;;;;;;14.73;7.00;;;;;;;7.49;95.54;102656.81;5005087;28;20070;-74
2023/02/14 08:16:06;;;;;;;14.02;6.55;;;;;;;7.50;95.43;102650.75;4998678;28;20069;-74
2023/02/14 08:18:34;;;;;;;13.32;7.00;;;;;;;7.61;95.25;102649.44;5003917;28;20046;-74
2023/02/14 08:21:00;;;;;;;12.68;6.25;;;;;;;7.65;94.53;102648.75;5008186;28;20493;-74
2023/02/14 08:23:25;;;;;;;13.55;6.32;;;;;;;7.71;94.88;102642.81;5001536;28;20176;-74
2023/02/14 08:25:51;;;;;;;14.23;6.70;;;;;;;7.71;95.67;102650.72;5002183;28;20076;-75
2023/02/14 08:28:18;;;;;;;13.52;6.93;;;;;;;7.77;93.69;102656.19;5008108;28;20034;-74
2023/02/14 08:30:43;;;;;;;12.15;5.38;;;;;;;7.80;91.07;102658.94;5006973;28;20045;-75
2023/02/14 08:33:10;;;;;;;8.93;3.75;;;;;;;7.92;90.15;102649.75;5005899;28;20050;-74
2023/02/14 08:35:35;;;;;;;9.95;5.07;;;;;;;8.04;89.89;102652.84;5003582;28;20034;-74
2023/02/14 08:38:01;;;;;;;8.52;4.60;;;;;;;8.17;90.70;102654.19;5007831;28;20034;-74
2023/02/14 08:40:27;;;;;;;15.60;8.18;;;;;;;8.10;87.78;102660.97;5004017;28;20382;-74
2023/02/14 08:42:52;;;;;;;10.23;4.88;;;;;;;8.07;86.67;102652.97;5007066;28;20627;-74
2023/02/14 08:45:18;;;;;;;9.25;5.15;;;;;;;8.12;88.28;102659.28;5005531;28;20044;-75
2023/02/14 08:47:43;;;;;;;10.23;5.65;;;;;;;8.06;86.18;102666.94;5005629;28;20365;-74
2023/02/14 08:50:12;;;;;;;10.10;4.55;;;;;;;7.93;86.23;102670.84;5009360;28;20042;-74
2023/02/14 08:52:42;;;;;;;8.40;4.28;;;;;;;7.92;85.41;102676.06;5007170;28;20442;-74
2023/02/14 08:55:08;;;;;;;7.65;3.60;;;;;;;7.98;85.51;102673.66;5006702;28;20077;-74
2023/02/14 08:57:34;;;;;;;9.38;5.10;;;;;;;7.97;85.08;102671.88;5004962;28;20038;-74
2023/02/14 08:59:59;;;;;;;10.55;5.65;;;;;;;7.99;86.67;102680.69;5006579;28;20092;-74
2023/02/14 09:02:25;;;;;;;10.75;5.13;;;;;;;8.08;87.51;102675.81;5005775;28;20034;-74
2023/02/14 09:04:50;;;;;;;10.57;5.88;;;;;;;8.21;87.32;102679.78;5003402;28;20085;-74
2023/02/14 09:07:15;;;;;;;10.90;5.57;;;;;;;8.27;87.51;102673.00;5010014;28;20060;-74
2023/02/14 09:09:41;;;;;;;11.60;5.47;;;;;;;8.38;86.52;102667.25;5009934;28;20033;-74
2023/02/14 09:12:08;;;;;;;9.00;4.45;;;;;;;8.44;85.30;102675.44;5009948;28;20033;-74
2023/02/14 09:14:35;;;;;;;8.63;4.75;;;;;;;8.44;85.64;102664.91;5009599;28;20129;-74
2023/02/14 09:17:04;;;;;;;8.77;4.45;;;;;;;8.52;85.87;102664.34;5005440;28;20042;-74
2023/02/14 09:19:30;;;;;;;9.15;5.35;;;;;;;8.53;85.10;102670.50;5008211;28;20034;-74
2023/02/14 09:21:55;;;;;;;11.18;5.35;;;;;;;8.55;85.50;102667.06;5004352;28;20030;-74
2023/02/14 09:24:21;;;;;;;11.77;5.65;;;;;;;8.52;85.32;102674.88;5002293;28;20531;-74
2023/02/14 09:26:46;;;;;;;10.45;5.35;;;;;;;8.63;84.67;102671.72;5004267;28;20050;-74
2023/02/14 09:29:12;;;;;;;14.20;7.03;;;;;;;8.61;83.50;102673.41;5005654;28;20041;-74
2023/02/14 09:31:37;;;;;;;10.60;6.07;;;;;;;8.44;81.32;102675.44;5006954;28;20038;-74
2023/02/14 09:34:02;;;;;;;10.70;5.38;;;;;;;8.20;82.78;102676.28;5003039;28;20049;-75
2023/02/14 09:39:12;;;;;;;11.02;5.82;;;;;;;8.33;84.94;102683.78;5003481;28;20124;-75
2023/02/14 09:41:56;;;;;;;17.02;8.18;;;;;;;8.42;82.79;102680.63;5005558;28;20120;-74
2023/02/14 09:44:27;;;;;;;11.25;5.90;;;;;;;8.45;83.38;102680.72;5002385;28;20039;-74
2023/02/14 09:46:59;;;;;;;12.43;5.88;;;;;;;8.47;84.38;102680.81;5003427;28;20045;-74
2023/02/14 09:49:32;;;;;;;9.38;5.07;;;;;;;8.56;84.76;102678.50;5005646;28;20120;-74
2023/02/14 09:52:01;;;;;;;12.35;6.32;;;;;;;8.64;84.07;102673.50;5002805;28;20042;-74
2023/02/14 09:54:28;;;;;;;12.73;5.57;;;;;;;8.70;83.30;102684.28;5003672;28;20041;-74
2023/02/14 09:57:18;;;;;;;11.75;5.63;;;;;;;8.42;81.15;102685.00;5007721;28;20544;-74
2023/02/14 09:59:58;;;;;;;17.65;8.77;;;;;;;8.33;80.32;102678.53;5011032;28;20063;-74
2023/02/14 10:02:57;;;;;;;20.95;10.93;;;;;;;8.63;82.25;102677.88;5003662;28;20497;-74
2023/02/14 10:05:25;;;;;;;12.63;7.00;;;;;;;8.57;82.11;102677.69;5009535;28;20034;-74
2023/02/14 10:08:08;;;;;;;17.05;9.40;;;;;;;8.27;82.42;102680.91;5002276;28;20045;-74
2023/02/14 10:10:42;;;;;;;16.55;9.73;;;;;;;8.21;82.62;102680.69;5007576;28;20041;-74
2023/02/14 10:13:18;;;;;;;14.63;8.98;;;;;;;8.20;83.06;102681.53;5004169;28;20382;-74
2023/02/14 10:15:47;;;;;;;17.35;9.63;;;;;;;8.29;83.41;102680.97;4998928;28;20154;-74
2023/02/14 10:18:19;;;;;;;19.27;9.23;;;;;;;8.36;84.11;102683.00;5004244;28;20030;-74
2023/02/14 10:20:47;;;;;;;;;;;;;;;8.47;82.90;102676.44;5005221;28;20493;-75
2023/02/14 10:23:25;;;;;;;17.25;8.82;;;;;;;8.55;83.89;102681.97;5003597;28;20359;-75
2023/02/14 10:25:58;;;;;;;15.98;9.52;;;;;;;8.69;84.04;102685.09;5003901;28;20030;-75
2023/02/14 10:28:29;;;;;;;;;;;;;;;8.64;82.57;102677.03;5004052;28;20638;-74
2023/02/14 10:31:18;;;;;;;17.63;10.40;;;;;;;8.67;82.53;102677.16;5008625;28;20354;-74
2023/02/14 10:33:52;;;;;;;19.33;10.82;;;;;;;8.54;82.02;102677.53;5001635;28;20042;-74
2023/02/14 10:36:27;;;;;;;17.90;9.93;;;;;;;8.53;82.96;102674.00;5035679;23;20041;-77
2023/02/14 10:39:04;;;;;;;21.90;10.75;;;;;;;8.61;82.87;102674.28;5006529;28;20073;-78
2023/02/14 10:41:47;;;;;;;18.92;10.10;;;;;;;8.66;83.11;102670.09;5011300;28;20563;-78
2023/02/14 10:44:31;;;;;;;19.05;10.13;;;;;;;8.62;81.61;102673.47;5005865;28;20117;-77
2023/02/14 10:47:19;;;;;;;16.38;9.32;;;;;;;8.61;83.07;102671.66;5008582;28;20050;-77
2023/02/14 10:49:53;;;;;;;17.52;10.23;;;;;;;8.66;83.46;102671.84;4999194;28;20054;-77
2023/02/14 10:52:45;;;;;;;15.60;9.50;;;;;;;8.69;83.11;102674.56;5008503;28;20033;-77
2023/02/14 10:55:19;;;;;;;19.90;10.75;;;;;;;8.75;83.49;102670.44;5009259;28;20116;-78
2023/02/14 10:57:49;;;;;;;18.42;10.57;;;;;;;8.75;83.37;102664.25;5004141;28;20034;-78
2023/02/14 11:00:25;;;;;;;17.75;10.15;;;;;;;8.78;84.07;102667.91;5009641;28;20045;-78
2023/02/14 11:02:55;;;;;;;16.58;10.00;;;;;;;8.83;83.27;102668.06;5010282;28;20442;-78
2023/02/14 11:05:30;;;;;;;15.15;10.00;;;;;;;8.86;83.18;102664.66;5011395;28;20034;-78
2023/02/14 11:07:57;;;;;;;15.13;9.63;;;;;;;8.92;82.16;102664.84;5005764;28;20045;-78
2023/02/14 11:10:32;;;;;;;17.70;10.18;;;;;;;8.95;82.54;102668.47;5060446;28;20724;-77
2023/02/14 11:12:58;;;;;;;15.38;9.85;;;;;;;8.96;81.54;102666.72;5058659;28;20040;-77
2023/02/14 11:15:32;;;;;;;15.35;9.70;;;;;;;8.99;80.02;102653.69;5048273;28;20041;-77
2023/02/14 11:18:21;;;;;;;14.57;8.13;;;;;;;8.90;77.39;102656.00;5019281;28;20034;-77
2023/02/14 11:21:05;;;;;;;16.65;8.38;;;;;;;8.64;79.54;102658.59;5021121;28;20122;-77
2023/02/14 11:23:42;;;;;;;14.40;8.27;;;;;;;8.77;80.65;102655.56;5020412;28;20081;-77
2023/02/14 11:26:23;;;;;;;13.43;8.30;;;;;;;8.95;78.84;102654.41;5016288;28;20034;-77
2023/02/14 11:28:59;;;;;;;17.77;9.20;;;;;;;8.99;79.69;102654.59;5020344;28;20036;-77
2023/02/14 11:31:36;;;;;;;18.85;10.93;;;;;;;9.11;79.67;102656.72;5021856;28;20056;-77
2023/02/14 11:34:05;;;;;;;16.02;9.82;;;;;;;9.19;78.88;102649.97;5017919;28;20040;-77
2023/02/14 11:36:37;;;;;;;14.10;7.82;;;;;;;8.84;78.56;102651.41;5018109;28;20413;-77
2023/02/14 11:39:06;;;;;;;15.30;7.90;;;;;;;8.67;79.52;102648.22;5023216;28;20076;-77
2023/02/14 11:41:49;;;;;;;24.02;11.88;;;;;;;8.85;80.04;102644.41;5020221;28;20459;-76
2023/02/14 11:44:21;;;;;;;22.60;12.10;;;;;;;8.91;80.39;102644.66;5021106;28;20041;-76
2023/02/14 11:46:50;;;;;;;18.65;10.50;;;;;;;9.02;80.94;102634.47;5025912;28;20033;-77